sensor_id;sensor_type;location;lat;lon;timestamp;P1;durP1;ratioP1;P2;durP2;ratioP2
37859;SDS011;23698;52.014;5.190;2023-02-15T00:01:15;72.43;;;34.15;;
37859;SDS011;23698;52.014;5.190;2023-02-15T00:04:02;72.80;;;33.20;;
37859;SDS011;23698;52.014;5.190;2023-02-15T00:06:49;73.55;;;33.03;;
37859;SDS011;23698;52.014;5.190;2023-02-15T00:09:36;79.70;;;35.78;;
37859;SDS011;23698;52.014;5.190;2023-02-15T00:12:23;75.10;;;35.25;;
37859;SDS011;23698;52.014;5.190;2023-02-15T00:15:11;81.05;;;34.92;;
37859;SDS011;23698;52.014;5.190;2023-02-15T00:17:57;82.65;;;36.72;;
37859;SDS011;23698;52.014;5.190;2023-02-15T00:20:44;75.25;;;34.88;;
37859;SDS011;23698;52.014;5.190;2023-02-15T00:23:30;76.43;;;32.97;;
37859;SDS011;23698;52.014;5.190;2023-02-15T00:26:17;77.80;;;34.08;;
37859;SDS011;23698;52.014;5.190;2023-02-15T00:29:04;70.45;;;31.38;;
37859;SDS011;23698;52.014;5.190;2023-02-15T00:31:52;69.22;;;31.23;;
37859;SDS011;23698;52.014;5.190;2023-02-15T00:34:41;72.88;;;32.25;;
37859;SDS011;23698;52.014;5.190;2023-02-15T00:37:28;74.45;;;31.50;;
37859;SDS011;23698;52.014;5.190;2023-02-15T00:40:14;68.38;;;31.77;;
37859;SDS011;23698;52.014;5.190;2023-02-15T00:43:01;70.65;;;31.88;;
37859;SDS011;23698;52.014;5.190;2023-02-15T00:45:47;74.85;;;32.88;;
37859;SDS011;23698;52.014;5.190;2023-02-15T00:48:37;86.55;;;35.22;;
37859;SDS011;23698;52.014;5.190;2023-02-15T00:51:23;92.53;;;36.92;;
37859;SDS011;23698;52.014;5.190;2023-02-15T00:54:10;84.57;;;36.67;;
37859;SDS011;23698;52.014;5.190;2023-02-15T00:56:56;90.47;;;37.67;;
37859;SDS011;23698;52.014;5.190;2023-02-15T00:59:43;91.82;;;36.58;;
37859;SDS011;23698;52.014;5.190;2023-02-15T01:02:29;80.15;;;35.08;;
37859;SDS011;23698;52.014;5.190;2023-02-15T01:05:17;73.63;;;33.17;;
37859;SDS011;23698;52.014;5.190;2023-02-15T01:08:04;80.68;;;35.15;;
37859;SDS011;23698;52.014;5.190;2023-02-15T01:10:51;83.75;;;34.90;;
37859;SDS011;23698;52.014;5.190;2023-02-15T01:13:38;72.65;;;32.05;;
37859;SDS011;23698;52.014;5.190;2023-02-15T01:16:26;72.13;;;30.25;;
37859;SDS011;23698;52.014;5.190;2023-02-15T01:19:16;67.90;;;30.98;;
37859;SDS011;23698;52.014;5.190;2023-02-15T01:22:04;67.32;;;30.70;;
37859;SDS011;23698;52.014;5.190;2023-02-15T01:24:52;72.00;;;30.08;;
37859;SDS011;23698;52.014;5.190;2023-02-15T01:27:39;69.97;;;30.52;;
37859;SDS011;23698;52.014;5.190;2023-02-15T01:30:26;67.53;;;29.80;;
37859;SDS011;23698;52.014;5.190;2023-02-15T01:33:12;69.15;;;31.33;;
37859;SDS011;23698;52.014;5.190;2023-02-15T01:36:03;66.10;;;29.05;;
37859;SDS011;23698;52.014;5.190;2023-02-15T01:38:51;69.80;;;30.67;;
37859;SDS011;23698;52.014;5.190;2023-02-15T01:41:38;68.72;;;30.48;;
37859;SDS011;23698;52.014;5.190;2023-02-15T01:47:35;70.80;;;29.45;;
37859;SDS011;23698;52.014;5.190;2023-02-15T01:50:27;66.85;;;29.08;;
37859;SDS011;23698;52.014;5.190;2023-02-15T01:53:16;63.75;;;29.20;;
37859;SDS011;23698;52.014;5.190;2023-02-15T01:56:09;65.47;;;29.95;;
37859;SDS011;23698;52.014;5.190;2023-02-15T01:59:05;79.70;;;31.73;;
37859;SDS011;23698;52.014;5.190;2023-02-15T02:04:45;70.85;;;29.77;;
37859;SDS011;23698;52.014;5.190;2023-02-15T02:07:36;69.00;;;30.00;;
37859;SDS011;23698;52.014;5.190;2023-02-15T02:10:26;68.00;;;31.17;;
37859;SDS011;23698;52.014;5.190;2023-02-15T02:13:16;70.35;;;30.08;;
37859;SDS011;23698;52.014;5.190;2023-02-15T02:16:04;85.68;;;32.53;;
37859;SDS011;23698;52.014;5.190;2023-02-15T02:19:00;73.95;;;32.85;;
37859;SDS011;23698;52.014;5.190;2023-02-15T02:22:07;75.03;;;30.92;;
37859;SDS011;23698;52.014;5.190;2023-02-15T02:25:19;77.18;;;32.67;;
37859;SDS011;23698;52.014;5.190;2023-02-15T02:28:23;86.80;;;34.83;;
37859;SDS011;23698;52.014;5.190;2023-02-15T02:31:35;66.55;;;31.38;;
37859;SDS011;23698;52.014;5.190;2023-02-15T02:34:36;71.47;;;30.75;;
37859;SDS011;23698;52.014;5.190;2023-02-15T02:37:30;75.43;;;31.60;;
37859;SDS011;23698;52.014;5.190;2023-02-15T02:40:29;75.00;;;32.40;;
37859;SDS011;23698;52.014;5.190;2023-02-15T02:43:29;79.18;;;32.20;;
37859;SDS011;23698;52.014;5.190;2023-02-15T02:46:24;79.55;;;32.65;;
37859;SDS011;23698;52.014;5.190;2023-02-15T02:49:14;82.32;;;33.72;;
37859;SDS011;23698;52.014;5.190;2023-02-15T02:52:03;88.45;;;35.47;;
37859;SDS011;23698;52.014;5.190;2023-02-15T02:54:51;83.38;;;32.42;;
37859;SDS011;23698;52.014;5.190;2023-02-15T02:57:40;73.25;;;32.13;;
37859;SDS011;23698;52.014;5.190;2023-02-15T03:00:32;78.10;;;33.85;;
37859;SDS011;23698;52.014;5.190;2023-02-15T03:03:23;81.55;;;33.67;;
37859;SDS011;23698;52.014;5.190;2023-02-15T03:06:14;86.22;;;34.47;;
37859;SDS011;23698;52.014;5.190;2023-02-15T03:09:07;97.20;;;35.17;;
37859;SDS011;23698;52.014;5.190;2023-02-15T03:11:59;102.18;;;36.08;;
37859;SDS011;23698;52.014;5.190;2023-02-15T03:14:48;97.07;;;38.70;;
37859;SDS011;23698;52.014;5.190;2023-02-15T03:17:37;101.00;;;38.22;;
37859;SDS011;23698;52.014;5.190;2023-02-15T03:20:27;114.75;;;37.95;;
37859;SDS011;23698;52.014;5.190;2023-02-15T03:23:20;102.95;;;38.53;;
37859;SDS011;23698;52.014;5.190;2023-02-15T03:26:10;109.82;;;37.60;;
37859;SDS011;23698;52.014;5.190;2023-02-15T03:28:57;100.88;;;37.78;;
37859;SDS011;23698;52.014;5.190;2023-02-15T03:31:48;99.18;;;38.25;;
37859;SDS011;23698;52.014;5.190;2023-02-15T03:34:40;109.65;;;39.10;;
37859;SDS011;23698;52.014;5.190;2023-02-15T03:37:28;101.32;;;38.00;;
37859;SDS011;23698;52.014;5.190;2023-02-15T03:40:19;111.55;;;40.15;;
37859;SDS011;23698;52.014;5.190;2023-02-15T03:43:30;111.90;;;39.78;;
37859;SDS011;23698;52.014;5.190;2023-02-15T03:46:24;99.82;;;38.75;;
37859;SDS011;23698;52.014;5.190;2023-02-15T03:49:20;108.32;;;37.88;;
37859;SDS011;23698;52.014;5.190;2023-02-15T03:52:10;93.72;;;37.55;;
37859;SDS011;23698;52.014;5.190;2023-02-15T03:54:59;92.65;;;35.75;;
37859;SDS011;23698;52.014;5.190;2023-02-15T03:57:45;90.82;;;34.88;;
37859;SDS011;23698;52.014;5.190;2023-02-15T04:00:52;82.43;;;33.22;;
37859;SDS011;23698;52.014;5.190;2023-02-15T04:04:01;80.93;;;32.05;;
37859;SDS011;23698;52.014;5.190;2023-02-15T04:06:53;89.03;;;33.50;;
37859;SDS011;23698;52.014;5.190;2023-02-15T04:09:40;87.13;;;33.38;;
37859;SDS011;23698;52.014;5.190;2023-02-15T04:12:44;81.32;;;30.98;;
37859;SDS011;23698;52.014;5.190;2023-02-15T04:15:31;74.43;;;30.90;;
37859;SDS011;23698;52.014;5.190;2023-02-15T04:18:37;65.80;;;30.73;;
37859;SDS011;23698;52.014;5.190;2023-02-15T04:21:42;70.93;;;29.98;;
37859;SDS011;23698;52.014;5.190;2023-02-15T04:24:46;81.72;;;30.40;;
37859;SDS011;23698;52.014;5.190;2023-02-15T04:27:52;82.75;;;31.45;;
37859;SDS011;23698;52.014;5.190;2023-02-15T04:30:39;76.95;;;29.83;;
37859;SDS011;23698;52.014;5.190;2023-02-15T04:33:26;75.75;;;31.95;;
37859;SDS011;23698;52.014;5.190;2023-02-15T04:36:14;83.30;;;31.65;;
37859;SDS011;23698;52.014;5.190;2023-02-15T04:39:01;82.07;;;31.13;;
37859;SDS011;23698;52.014;5.190;2023-02-15T04:41:47;71.20;;;30.48;;
37859;SDS011;23698;52.014;5.190;2023-02-15T04:44:33;80.90;;;31.85;;
37859;SDS011;23698;52.014;5.190;2023-02-15T04:47:20;75.18;;;29.80;;
37859;SDS011;23698;52.014;5.190;2023-02-15T04:50:07;72.30;;;30.00;;
37859;SDS011;23698;52.014;5.190;2023-02-15T04:52:55;71.68;;;30.48;;
37859;SDS011;23698;52.014;5.190;2023-02-15T04:55:42;82.22;;;30.08;;
37859;SDS011;23698;52.014;5.190;2023-02-15T04:58:28;79.13;;;32.03;;
37859;SDS011;23698;52.014;5.190;2023-02-15T05:01:15;74.65;;;30.08;;
37859;SDS011;23698;52.014;5.190;2023-02-15T05:04:02;84.13;;;31.00;;
37859;SDS011;23698;52.014;5.190;2023-02-15T05:06:49;77.82;;;30.00;;
37859;SDS011;23698;52.014;5.190;2023-02-15T05:09:36;84.88;;;31.10;;
37859;SDS011;23698;52.014;5.190;2023-02-15T05:12:23;81.05;;;30.88;;
37859;SDS011;23698;52.014;5.190;2023-02-15T05:15:09;83.15;;;30.80;;
37859;SDS011;23698;52.014;5.190;2023-02-15T05:17:56;81.03;;;30.05;;
37859;SDS011;23698;52.014;5.190;2023-02-15T05:20:42;81.53;;;30.77;;
37859;SDS011;23698;52.014;5.190;2023-02-15T05:23:29;94.80;;;31.60;;
37859;SDS011;23698;52.014;5.190;2023-02-15T05:26:18;79.25;;;30.67;;
37859;SDS011;23698;52.014;5.190;2023-02-15T05:29:23;83.47;;;31.17;;
37859;SDS011;23698;52.014;5.190;2023-02-15T05:32:11;85.40;;;31.98;;
37859;SDS011;23698;52.014;5.190;2023-02-15T05:34:58;83.72;;;32.15;;
37859;SDS011;23698;52.014;5.190;2023-02-15T05:37:45;95.32;;;33.60;;
37859;SDS011;23698;52.014;5.190;2023-02-15T05:40:31;94.72;;;32.42;;
37859;SDS011;23698;52.014;5.190;2023-02-15T05:43:20;91.35;;;35.00;;
37859;SDS011;23698;52.014;5.190;2023-02-15T05:46:07;103.60;;;34.67;;
37859;SDS011;23698;52.014;5.190;2023-02-15T05:48:54;100.78;;;36.72;;
37859;SDS011;23698;52.014;5.190;2023-02-15T05:51:41;107.07;;;36.58;;
37859;SDS011;23698;52.014;5.190;2023-02-15T05:54:27;95.05;;;37.90;;
37859;SDS011;23698;52.014;5.190;2023-02-15T05:57:14;88.50;;;32.67;;
37859;SDS011;23698;52.014;5.190;2023-02-15T06:00:03;86.75;;;31.55;;
37859;SDS011;23698;52.014;5.190;2023-02-15T06:02:55;91.85;;;34.17;;
37859;SDS011;23698;52.014;5.190;2023-02-15T06:05:42;86.50;;;32.70;;
37859;SDS011;23698;52.014;5.190;2023-02-15T06:08:28;94.45;;;33.53;;
37859;SDS011;23698;52.014;5.190;2023-02-15T06:11:15;93.05;;;32.85;;
37859;SDS011;23698;52.014;5.190;2023-02-15T06:14:02;101.68;;;34.13;;
37859;SDS011;23698;52.014;5.190;2023-02-15T06:16:50;103.95;;;35.20;;
37859;SDS011;23698;52.014;5.190;2023-02-15T06:19:36;101.80;;;34.30;;
37859;SDS011;23698;52.014;5.190;2023-02-15T06:22:22;110.28;;;35.10;;
37859;SDS011;23698;52.014;5.190;2023-02-15T06:25:09;91.78;;;33.50;;
37859;SDS011;23698;52.014;5.190;2023-02-15T06:27:56;103.28;;;34.08;;
37859;SDS011;23698;52.014;5.190;2023-02-15T06:30:42;108.32;;;36.33;;
37859;SDS011;23698;52.014;5.190;2023-02-15T06:33:30;102.13;;;35.15;;
37859;SDS011;23698;52.014;5.190;2023-02-15T06:36:19;117.95;;;37.55;;
37859;SDS011;23698;52.014;5.190;2023-02-15T06:39:06;106.82;;;38.97;;
37859;SDS011;23698;52.014;5.190;2023-02-15T06:41:52;111.10;;;35.22;;
37859;SDS011;23698;52.014;5.190;2023-02-15T06:44:39;104.78;;;36.60;;
37859;SDS011;23698;52.014;5.190;2023-02-15T06:47:26;113.28;;;36.78;;
37859;SDS011;23698;52.014;5.190;2023-02-15T06:50:14;104.15;;;38.38;;
37859;SDS011;23698;52.014;5.190;2023-02-15T06:53:00;98.55;;;36.80;;
37859;SDS011;23698;52.014;5.190;2023-02-15T06:55:47;110.35;;;36.28;;
37859;SDS011;23698;52.014;5.190;2023-02-15T06:58:34;103.80;;;36.33;;
37859;SDS011;23698;52.014;5.190;2023-02-15T07:01:21;108.25;;;34.78;;
37859;SDS011;23698;52.014;5.190;2023-02-15T07:04:08;109.88;;;36.08;;
37859;SDS011;23698;52.014;5.190;2023-02-15T07:06:56;106.10;;;36.30;;
37859;SDS011;23698;52.014;5.190;2023-02-15T07:09:43;102.25;;;38.15;;
37859;SDS011;23698;52.014;5.190;2023-02-15T07:12:29;108.30;;;36.97;;
37859;SDS011;23698;52.014;5.190;2023-02-15T07:15:27;95.80;;;37.20;;
37859;SDS011;23698;52.014;5.190;2023-02-15T07:18:14;98.30;;;35.92;;
37859;SDS011;23698;52.014;5.190;2023-02-15T07:21:01;108.57;;;38.10;;
37859;SDS011;23698;52.014;5.190;2023-02-15T07:23:49;105.97;;;37.75;;
37859;SDS011;23698;52.014;5.190;2023-02-15T07:26:35;118.07;;;38.97;;
37859;SDS011;23698;52.014;5.190;2023-02-15T07:29:22;112.43;;;37.80;;
37859;SDS011;23698;52.014;5.190;2023-02-15T07:32:08;119.38;;;38.55;;
37859;SDS011;23698;52.014;5.190;2023-02-15T07:34:55;113.47;;;38.25;;
37859;SDS011;23698;52.014;5.190;2023-02-15T07:37:42;121.45;;;37.92;;
37859;SDS011;23698;52.014;5.190;2023-02-15T07:40:30;104.80;;;37.80;;
37859;SDS011;23698;52.014;5.190;2023-02-15T07:43:16;110.28;;;38.28;;
37859;SDS011;23698;52.014;5.190;2023-02-15T07:46:03;106.80;;;38.65;;
37859;SDS011;23698;52.014;5.190;2023-02-15T07:48:52;117.25;;;39.78;;
37859;SDS011;23698;52.014;5.190;2023-02-15T07:51:38;102.88;;;38.60;;
37859;SDS011;23698;52.014;5.190;2023-02-15T07:54:25;120.53;;;39.38;;
37859;SDS011;23698;52.014;5.190;2023-02-15T07:57:13;116.20;;;40.50;;
37859;SDS011;23698;52.014;5.190;2023-02-15T08:00:00;122.68;;;44.88;;
37859;SDS011;23698;52.014;5.190;2023-02-15T08:02:56;121.57;;;42.67;;
37859;SDS011;23698;52.014;5.190;2023-02-15T08:06:02;111.85;;;42.58;;
37859;SDS011;23698;52.014;5.190;2023-02-15T08:08:49;123.50;;;43.47;;
37859;SDS011;23698;52.014;5.190;2023-02-15T08:11:36;120.57;;;43.55;;
37859;SDS011;23698;52.014;5.190;2023-02-15T08:14:26;118.00;;;42.10;;
37859;SDS011;23698;52.014;5.190;2023-02-15T08:17:13;122.75;;;42.97;;
37859;SDS011;23698;52.014;5.190;2023-02-15T08:20:00;116.65;;;41.78;;
37859;SDS011;23698;52.014;5.190;2023-02-15T08:22:46;118.00;;;43.30;;
37859;SDS011;23698;52.014;5.190;2023-02-15T08:25:33;120.63;;;43.42;;
37859;SDS011;23698;52.014;5.190;2023-02-15T08:28:19;121.80;;;43.78;;
37859;SDS011;23698;52.014;5.190;2023-02-15T08:31:08;122.10;;;45.60;;
37859;SDS011;23698;52.014;5.190;2023-02-15T08:33:56;115.53;;;44.60;;
37859;SDS011;23698;52.014;5.190;2023-02-15T08:36:43;120.20;;;44.40;;
37859;SDS011;23698;52.014;5.190;2023-02-15T08:39:31;121.75;;;44.63;;
37859;SDS011;23698;52.014;5.190;2023-02-15T08:42:17;121.25;;;46.15;;
37859;SDS011;23698;52.014;5.190;2023-02-15T08:45:06;127.55;;;47.08;;
37859;SDS011;23698;52.014;5.190;2023-02-15T08:47:54;116.18;;;45.97;;
37859;SDS011;23698;52.014;5.190;2023-02-15T08:50:40;120.72;;;44.90;;
37859;SDS011;23698;52.014;5.190;2023-02-15T08:53:27;122.28;;;48.65;;
37859;SDS011;23698;52.014;5.190;2023-02-15T08:56:13;117.22;;;44.85;;
37859;SDS011;23698;52.014;5.190;2023-02-15T08:59:00;113.18;;;46.28;;
37859;SDS011;23698;52.014;5.190;2023-02-15T09:01:48;119.00;;;46.45;;
37859;SDS011;23698;52.014;5.190;2023-02-15T09:04:38;108.07;;;44.00;;
37859;SDS011;23698;52.014;5.190;2023-02-15T09:07:24;110.03;;;45.83;;
37859;SDS011;23698;52.014;5.190;2023-02-15T09:10:10;109.18;;;43.83;;
37859;SDS011;23698;52.014;5.190;2023-02-15T09:12:57;100.20;;;43.50;;
37859;SDS011;23698;52.014;5.190;2023-02-15T09:15:44;104.68;;;44.17;;
37859;SDS011;23698;52.014;5.190;2023-02-15T09:18:32;94.10;;;42.70;;
37859;SDS011;23698;52.014;5.190;2023-02-15T09:21:23;90.32;;;40.28;;
37859;SDS011;23698;52.014;5.190;2023-02-15T09:24:12;86.78;;;38.95;;
37859;SDS011;23698;52.014;5.190;2023-02-15T09:27:00;79.10;;;37.60;;
37859;SDS011;23698;52.014;5.190;2023-02-15T09:29:47;75.05;;;35.35;;
37859;SDS011;23698;52.014;5.190;2023-02-15T09:32:34;74.13;;;34.97;;
37859;SDS011;23698;52.014;5.190;2023-02-15T09:35:20;71.00;;;34.67;;
37859;SDS011;23698;52.014;5.190;2023-02-15T09:38:08;68.47;;;32.13;;
37859;SDS011;23698;52.014;5.190;2023-02-15T09:41:00;61.45;;;31.15;;
37859;SDS011;23698;52.014;5.190;2023-02-15T09:43:59;55.58;;;30.05;;
37859;SDS011;23698;52.014;5.190;2023-02-15T09:46:59;55.30;;;27.98;;
37859;SDS011;23698;52.014;5.190;2023-02-15T09:50:00;56.55;;;29.25;;
37859;SDS011;23698;52.014;5.190;2023-02-15T09:52:59;57.80;;;29.17;;
37859;SDS011;23698;52.014;5.190;2023-02-15T09:56:02;56.45;;;27.67;;
37859;SDS011;23698;52.014;5.190;2023-02-15T09:58:57;54.10;;;28.13;;
37859;SDS011;23698;52.014;5.190;2023-02-15T10:01:52;56.20;;;27.85;;
37859;SDS011;23698;52.014;5.190;2023-02-15T10:04:51;60.72;;;29.13;;
37859;SDS011;23698;52.014;5.190;2023-02-15T10:11:08;52.65;;;28.05;;
37859;SDS011;23698;52.014;5.190;2023-02-15T10:14:34;51.33;;;28.38;;
37859;SDS011;23698;52.014;5.190;2023-02-15T10:17:38;46.60;;;25.80;;
37859;SDS011;23698;52.014;5.190;2023-02-15T10:20:39;47.97;;;25.88;;
37859;SDS011;23698;52.014;5.190;2023-02-15T10:29:52;46.92;;;24.60;;
37859;SDS011;23698;52.014;5.190;2023-02-15T10:32:52;47.80;;;25.88;;
37859;SDS011;23698;52.014;5.190;2023-02-15T10:35:46;53.65;;;26.88;;
37859;SDS011;23698;52.014;5.190;2023-02-15T10:38:40;46.13;;;26.08;;
37859;SDS011;23698;52.014;5.190;2023-02-15T10:41:36;47.58;;;26.17;;
37859;SDS011;23698;52.014;5.190;2023-02-15T10:44:41;44.35;;;24.27;;
37859;SDS011;23698;52.014;5.190;2023-02-15T10:47:53;50.13;;;26.27;;
37859;SDS011;23698;52.014;5.190;2023-02-15T10:50:51;53.03;;;26.08;;
37859;SDS011;23698;52.014;5.190;2023-02-15T10:53:48;44.25;;;24.40;;
37859;SDS011;23698;52.014;5.190;2023-02-15T10:56:50;47.67;;;26.08;;
37859;SDS011;23698;52.014;5.190;2023-02-15T10:59:56;50.90;;;26.63;;
37859;SDS011;23698;52.014;5.190;2023-02-15T11:02:56;48.65;;;24.73;;
37859;SDS011;23698;52.014;5.190;2023-02-15T11:05:56;49.15;;;26.88;;
37859;SDS011;23698;52.014;5.190;2023-02-15T11:08:49;46.33;;;25.63;;
37859;SDS011;23698;52.014;5.190;2023-02-15T11:11:40;49.95;;;26.70;;
37859;SDS011;23698;52.014;5.190;2023-02-15T11:14:31;52.70;;;26.25;;
37859;SDS011;23698;52.014;5.190;2023-02-15T11:17:27;50.33;;;26.45;;
37859;SDS011;23698;52.014;5.190;2023-02-15T11:20:21;48.55;;;25.67;;
37859;SDS011;23698;52.014;5.190;2023-02-15T11:23:14;52.30;;;26.85;;
37859;SDS011;23698;52.014;5.190;2023-02-15T11:26:04;51.72;;;26.40;;
37859;SDS011;23698;52.014;5.190;2023-02-15T11:28:58;46.33;;;25.67;;
37859;SDS011;23698;52.014;5.190;2023-02-15T11:31:49;46.67;;;25.30;;
37859;SDS011;23698;52.014;5.190;2023-02-15T11:34:44;45.92;;;25.25;;
37859;SDS011;23698;52.014;5.190;2023-02-15T11:37:38;48.78;;;25.80;;
37859;SDS011;23698;52.014;5.190;2023-02-15T11:40:32;47.63;;;24.80;;
37859;SDS011;23698;52.014;5.190;2023-02-15T11:43:23;49.45;;;27.00;;
37859;SDS011;23698;52.014;5.190;2023-02-15T11:46:16;45.75;;;25.52;;
37859;SDS011;23698;52.014;5.190;2023-02-15T11:49:07;49.47;;;27.75;;
37859;SDS011;23698;52.014;5.190;2023-02-15T11:52:10;46.95;;;25.35;;
37859;SDS011;23698;52.014;5.190;2023-02-15T11:54:59;51.03;;;26.23;;
37859;SDS011;23698;52.014;5.190;2023-02-15T11:57:47;48.42;;;26.35;;
37859;SDS011;23698;52.014;5.190;2023-02-15T12:00:39;41.10;;;24.70;;
37859;SDS011;23698;52.014;5.190;2023-02-15T12:03:33;41.88;;;25.20;;
37859;SDS011;23698;52.014;5.190;2023-02-15T12:06:30;42.75;;;26.90;;
37859;SDS011;23698;52.014;5.190;2023-02-15T12:09:23;51.42;;;26.48;;
37859;SDS011;23698;52.014;5.190;2023-02-15T12:12:20;46.58;;;26.23;;
37859;SDS011;23698;52.014;5.190;2023-02-15T12:15:09;50.75;;;26.33;;
37859;SDS011;23698;52.014;5.190;2023-02-15T12:17:58;49.80;;;28.30;;
37859;SDS011;23698;52.014;5.190;2023-02-15T12:20:44;47.85;;;27.67;;
37859;SDS011;23698;52.014;5.190;2023-02-15T12:23:32;48.25;;;27.85;;
37859;SDS011;23698;52.014;5.190;2023-02-15T12:26:24;52.55;;;29.10;;
37859;SDS011;23698;52.014;5.190;2023-02-15T12:29:15;49.78;;;27.02;;
37859;SDS011;23698;52.014;5.190;2023-02-15T12:32:03;51.03;;;29.95;;
37859;SDS011;23698;52.014;5.190;2023-02-15T12:34:53;55.67;;;30.25;;
37859;SDS011;23698;52.014;5.190;2023-02-15T12:37:51;49.58;;;28.10;;
37859;SDS011;23698;52.014;5.190;2023-02-15T12:40:40;51.03;;;27.25;;
37859;SDS011;23698;52.014;5.190;2023-02-15T12:43:29;52.05;;;28.63;;
37859;SDS011;23698;52.014;5.190;2023-02-15T12:46:20;50.38;;;28.95;;
37859;SDS011;23698;52.014;5.190;2023-02-15T12:49:14;48.63;;;28.25;;
37859;SDS011;23698;52.014;5.190;2023-02-15T12:52:06;47.95;;;26.35;;
37859;SDS011;23698;52.014;5.190;2023-02-15T12:55:11;49.60;;;27.67;;
37859;SDS011;23698;52.014;5.190;2023-02-15T12:58:06;52.10;;;28.48;;
37859;SDS011;23698;52.014;5.190;2023-02-15T13:01:11;47.90;;;27.13;;
37859;SDS011;23698;52.014;5.190;2023-02-15T13:04:01;49.72;;;28.52;;
37859;SDS011;23698;52.014;5.190;2023-02-15T13:06:51;56.35;;;29.52;;
37859;SDS011;23698;52.014;5.190;2023-02-15T13:09:39;51.22;;;27.73;;
37859;SDS011;23698;52.014;5.190;2023-02-15T13:12:27;56.25;;;28.60;;
37859;SDS011;23698;52.014;5.190;2023-02-15T13:15:22;51.35;;;27.95;;
37859;SDS011;23698;52.014;5.190;2023-02-15T13:18:16;50.92;;;28.13;;
37859;SDS011;23698;52.014;5.190;2023-02-15T13:21:06;55.90;;;28.50;;
37859;SDS011;23698;52.014;5.190;2023-02-15T13:24:00;54.95;;;28.35;;
37859;SDS011;23698;52.014;5.190;2023-02-15T13:26:51;59.03;;;29.85;;
37859;SDS011;23698;52.014;5.190;2023-02-15T13:29:59;53.83;;;28.42;;
37859;SDS011;23698;52.014;5.190;2023-02-15T13:32:49;48.15;;;27.63;;
37859;SDS011;23698;52.014;5.190;2023-02-15T13:35:42;55.03;;;29.77;;
37859;SDS011;23698;52.014;5.190;2023-02-15T13:38:39;48.72;;;27.20;;
37859;SDS011;23698;52.014;5.190;2023-02-15T13:41:33;54.08;;;29.10;;
37859;SDS011;23698;52.014;5.190;2023-02-15T13:44:37;47.63;;;27.63;;
37859;SDS011;23698;52.014;5.190;2023-02-15T13:47:41;52.03;;;29.17;;
37859;SDS011;23698;52.014;5.190;2023-02-15T13:50:38;52.35;;;27.77;;
37859;SDS011;23698;52.014;5.190;2023-02-15T13:53:49;53.67;;;28.45;;
37859;SDS011;23698;52.014;5.190;2023-02-15T13:56:49;52.53;;;29.08;;
37859;SDS011;23698;52.014;5.190;2023-02-15T13:59:47;59.20;;;27.23;;
37859;SDS011;23698;52.014;5.190;2023-02-15T14:06:20;58.78;;;31.55;;
37859;SDS011;23698;52.014;5.190;2023-02-15T14:09:25;46.05;;;27.15;;
37859;SDS011;23698;52.014;5.190;2023-02-15T14:12:31;56.45;;;29.58;;
37859;SDS011;23698;52.014;5.190;2023-02-15T14:15:28;50.25;;;26.77;;
37859;SDS011;23698;52.014;5.190;2023-02-15T14:18:23;49.92;;;25.88;;
37859;SDS011;23698;52.014;5.190;2023-02-15T14:21:17;47.58;;;27.10;;
37859;SDS011;23698;52.014;5.190;2023-02-15T14:24:18;56.75;;;28.40;;
37859;SDS011;23698;52.014;5.190;2023-02-15T14:27:16;54.00;;;27.90;;
37859;SDS011;23698;52.014;5.190;2023-02-15T14:30:13;49.80;;;27.90;;
37859;SDS011;23698;52.014;5.190;2023-02-15T14:33:06;49.95;;;28.90;;
37859;SDS011;23698;52.014;5.190;2023-02-15T14:35:54;49.63;;;27.40;;
37859;SDS011;23698;52.014;5.190;2023-02-15T14:38:54;57.05;;;28.60;;
37859;SDS011;23698;52.014;5.190;2023-02-15T14:41:50;49.25;;;29.05;;
37859;SDS011;23698;52.014;5.190;2023-02-15T14:44:41;48.75;;;29.42;;
37859;SDS011;23698;52.014;5.190;2023-02-15T14:47:36;60.75;;;28.85;;
37859;SDS011;23698;52.014;5.190;2023-02-15T14:50:39;67.00;;;30.33;;
37859;SDS011;23698;52.014;5.190;2023-02-15T14:56:26;56.95;;;28.90;;
37859;SDS011;23698;52.014;5.190;2023-02-15T14:59:14;50.88;;;28.73;;
37859;SDS011;23698;52.014;5.190;2023-02-15T15:02:09;56.15;;;31.00;;
37859;SDS011;23698;52.014;5.190;2023-02-15T15:05:01;48.22;;;28.17;;
37859;SDS011;23698;52.014;5.190;2023-02-15T15:07:53;48.40;;;28.00;;
37859;SDS011;23698;52.014;5.190;2023-02-15T15:10:45;50.80;;;29.67;;
37859;SDS011;23698;52.014;5.190;2023-02-15T15:13:40;54.40;;;29.55;;
37859;SDS011;23698;52.014;5.190;2023-02-15T15:16:49;53.60;;;30.83;;
37859;SDS011;23698;52.014;5.190;2023-02-15T15:22:44;58.45;;;30.90;;
37859;SDS011;23698;52.014;5.190;2023-02-15T15:25:42;51.70;;;28.42;;
37859;SDS011;23698;52.014;5.190;2023-02-15T15:31:50;59.88;;;32.10;;
37859;SDS011;23698;52.014;5.190;2023-02-15T15:34:49;52.75;;;29.60;;
37859;SDS011;23698;52.014;5.190;2023-02-15T15:37:51;65.22;;;28.55;;
37859;SDS011;23698;52.014;5.190;2023-02-15T15:41:01;60.63;;;27.35;;
37859;SDS011;23698;52.014;5.190;2023-02-15T15:44:11;55.45;;;28.42;;
37859;SDS011;23698;52.014;5.190;2023-02-15T15:47:32;53.65;;;28.95;;
37859;SDS011;23698;52.014;5.190;2023-02-15T15:50:27;54.80;;;29.63;;
37859;SDS011;23698;52.014;5.190;2023-02-15T15:53:15;53.70;;;28.25;;
37859;SDS011;23698;52.014;5.190;2023-02-15T15:56:08;54.10;;;29.75;;
37859;SDS011;23698;52.014;5.190;2023-02-15T15:58:59;55.35;;;28.92;;
37859;SDS011;23698;52.014;5.190;2023-02-15T16:01:49;63.75;;;29.08;;
37859;SDS011;23698;52.014;5.190;2023-02-15T16:04:37;59.42;;;28.88;;
37859;SDS011;23698;52.014;5.190;2023-02-15T16:07:24;55.67;;;27.65;;
37859;SDS011;23698;52.014;5.190;2023-02-15T16:10:19;54.67;;;28.23;;
37859;SDS011;23698;52.014;5.190;2023-02-15T16:13:11;56.38;;;29.98;;
37859;SDS011;23698;52.014;5.190;2023-02-15T16:16:00;53.10;;;28.85;;
37859;SDS011;23698;52.014;5.190;2023-02-15T16:18:49;55.17;;;29.05;;
37859;SDS011;23698;52.014;5.190;2023-02-15T16:21:36;61.75;;;29.20;;
37859;SDS011;23698;52.014;5.190;2023-02-15T16:28:13;56.50;;;28.70;;
37859;SDS011;23698;52.014;5.190;2023-02-15T16:31:04;56.95;;;30.15;;
37859;SDS011;23698;52.014;5.190;2023-02-15T16:33:58;53.97;;;30.45;;
37859;SDS011;23698;52.014;5.190;2023-02-15T16:36:44;55.97;;;29.38;;
37859;SDS011;23698;52.014;5.190;2023-02-15T16:39:31;51.67;;;28.98;;
37859;SDS011;23698;52.014;5.190;2023-02-15T16:42:27;56.47;;;29.77;;
37859;SDS011;23698;52.014;5.190;2023-02-15T16:45:13;54.03;;;30.63;;
37859;SDS011;23698;52.014;5.190;2023-02-15T16:48:05;57.25;;;32.25;;
37859;SDS011;23698;52.014;5.190;2023-02-15T16:50:58;57.53;;;30.92;;
37859;SDS011;23698;52.014;5.190;2023-02-15T16:53:46;60.00;;;32.08;;
37859;SDS011;23698;52.014;5.190;2023-02-15T16:56:33;81.85;;;46.15;;
37859;SDS011;23698;52.014;5.190;2023-02-15T16:59:26;60.17;;;34.38;;
37859;SDS011;23698;52.014;5.190;2023-02-15T17:02:19;62.25;;;32.40;;
37859;SDS011;23698;52.014;5.190;2023-02-15T17:05:30;58.20;;;30.65;;
37859;SDS011;23698;52.014;5.190;2023-02-15T17:08:23;56.70;;;31.42;;
37859;SDS011;23698;52.014;5.190;2023-02-15T17:11:15;59.65;;;32.60;;
37859;SDS011;23698;52.014;5.190;2023-02-15T17:14:11;57.47;;;29.10;;